• Join FlightAware (Why Join?)
  • Login
  • US Flag 
01:49AM EST


 

Airport Tracker/Info


-or-


 

Live Flight TrackerFlight Track Log ✈ DAL268 ✈ 15-May-2013 ✈ KATL - KJFK

Flight Track Log - Related Links

Times and Time Zones

All times are in EDT time to prevent confusion due to time zone crossing. See the DAL268 flight status page for this flight to view local times or setup timezone preferences in your user account.

Time Position Orientation Groundspeed Altitude Reporting Facility
EDT Latitude Longitude Course Direction KTS MPH feet Rate Location/Type
06:07PM 33.6333 -84.4833 64° Northeast 184 212 2,400  Level Atlanta TRACON
06:08PM 33.6000 -84.5500 239° Southwest 246 283 3,600 1,800 Climbing Atlanta TRACON
06:09PM 33.7132 -84.0121 101° East  Level FlightAware Approximate
06:09PM 33.5500 -84.5833 209° Southwest 272 313 6,000  Level Atlanta TRACON
06:10PM 33.6904 -83.8755 101° East  Level FlightAware Approximate
06:10PM 33.4667 -84.5667 171° South 288 331 8,700  Level Atlanta TRACON
06:11PM 33.6676 -83.7389 101° East  Level FlightAware Approximate
06:12PM 33.6616 -83.6049 64° Northeast  Level FlightAware Approximate
06:12PM 33.4578 -84.3450 93° East 332 382 11,700  Level Atlanta Center
06:13PM 33.4789 -84.2181 79° East 369 425 13,000 1,800 Climbing Atlanta Center
06:14PM 33.5333 -84.0936 62° Northeast 381 438 15,400 2,040 Climbing Atlanta Center
06:15PM 33.5856 -83.9639 64° Northeast 402 463 17,100 1,560 Climbing Atlanta Center
06:16PM 33.6228 -83.8242 72° East 428 493 18,600 1,380 Climbing Atlanta Center
06:17PM 33.6517 -83.6769 77° East 441 507 19,900 1,380 Climbing Atlanta Center
06:18PM 33.7056 -83.5319 66° East 463 533 21,400 1,380 Climbing Atlanta Center
06:19PM 33.7611 -83.3892 65° Northeast 473 544 22,700 1,200 Climbing Atlanta Center
06:20PM 33.8208 -83.2436 64° Northeast 480 552 23,900 1,200 Climbing Atlanta Center
06:21PM 33.8864 -83.0803 64° Northeast 486 559 25,200 1,620 Climbing Atlanta Center
06:22PM 33.9436 -82.9319 65° Northeast 486 559 27,200 1,380 Climbing Atlanta Center
06:23PM 34.0008 -82.7908 64° Northeast 479 551 28,000 840 Climbing Atlanta Center
06:24PM 34.0597 -82.6422 64° Northeast 479 551 28,900 840 Climbing Atlanta Center
06:25PM 34.1186 -82.4981 64° Northeast 479 551 29,700 720 Climbing Atlanta Center
06:26PM 34.1689 -82.3667 65° Northeast 479 551 30,400 780 Climbing Atlanta Center
06:27PM 34.2275 -82.2172 65° Northeast 484 557 31,300 720 Climbing Atlanta Center
06:28PM 34.2900 -82.0778 61° Northeast 479 551 31,900 360 Climbing Atlanta Center
06:29PM 34.3586 -81.9403 59° Northeast 479 551 32,100 360 Climbing Atlanta Center
06:30PM 34.4292 -81.8050 58° Northeast 474 545 32,700 420 Climbing Atlanta Center
06:31PM 34.4933 -81.6672 61° Northeast 468 539 33,000 120 Climbing Atlanta Center
06:32PM 34.5617 -81.5317 59° Northeast 468 539 33,000  Level Atlanta Center
06:33PM 34.6381 -81.3853 58° Northeast 478 550 33,000  Level Atlanta Center
06:34PM 34.7058 -81.2417 60° Northeast 480 552 33,000  Level Atlanta Center
06:35PM 34.7733 -81.1031 59° Northeast 484 557 33,000  Level Atlanta Center
06:36PM 34.8411 -80.9664 59° Northeast 474 545 33,000  Level Atlanta Center
06:38PM 34.9567 -80.7261 60° Northeast 476 548 33,000  Level Washington Center
06:39PM 35.0231 -80.5858 60° Northeast 471 542 33,000  Level Washington Center
06:40PM 35.0872 -80.4503 60° Northeast 471 542 33,000  Level Washington Center
06:41PM 35.1533 -80.3094 60° Northeast 471 542 33,000  Level Washington Center
06:42PM 35.2211 -80.1711 59° Northeast 471 542 33,000  Level Washington Center
06:43PM 35.2869 -80.0372 59° Northeast 462 532 33,000  Level Washington Center
06:44PM 35.3525 -79.8983 60° Northeast 462 532 33,000  Level Washington Center
06:45PM 35.4017 -79.7481 68° East 462 532 33,000  Level Washington Center
06:46PM 35.4464 -79.5950 70° East 462 532 33,000  Level Washington Center
06:47PM 35.4911 -79.4417 70° East 467 537 33,000  Level Washington Center
06:48PM 35.5425 -79.2703 70° East 478 550 33,000  Level Washington Center
06:49PM 35.5867 -79.1167 70° East 478 550 33,000  Level Washington Center
06:50PM 35.6261 -78.9778 71° East 478 550 33,000  Level Washington Center
06:51PM 35.6722 -78.8239 70° East 478 550 33,000  Level Washington Center
06:52PM 35.7181 -78.6644 70° East 483 556 33,000  Level Washington Center
06:53PM 35.7617 -78.5075 71° East 483 556 33,000  Level Washington Center
06:54PM 35.8031 -78.3503 72° East 476 548 33,000  Level Washington Center
06:55PM 35.8461 -78.1956 71° East 476 548 33,000  Level Washington Center
06:56PM 35.8869 -78.0403 72° East 476 548 33,000  Level Washington Center
06:57PM 35.9342 -77.8725 71° East 476 548 33,000  Level Washington Center
06:58PM 35.9764 -77.7197 71° East 476 548 33,000  Level Washington Center
06:59PM 36.0475 -77.5906 56° Northeast 465 535 33,000  Level Washington Center
07:00PM 36.1269 -77.4614 53° Northeast 462 532 33,000  Level Washington Center
07:01PM 36.1975 -77.3525 51° Northeast 467 537 33,000  Level Washington Center
07:02PM 36.2600 -77.2122 61° Northeast 467 537 33,000  Level Washington Center
07:03PM 36.3119 -77.0614 67° East 460 529 33,000  Level Washington Center
07:04PM 36.3617 -76.9125 67° East 460 529 33,000 -60 Level Washington Center
07:05PM 36.4153 -76.7714 65° Northeast 455 524 32,900  Descending Washington Center
07:06PM 36.5164 -76.6567 42° Northeast 447 514 33,000  Climbing Washington Center
07:07PM 36.6256 -76.5781 30° Northeast 430 495 33,000  Level Washington Center
07:08PM 36.7200 -76.5039 32° Northeast 441 507 33,000  Level Washington Center
07:09PM 36.8250 -76.4222 32° Northeast 441 507 33,000  Level Washington Center
07:10PM 36.9339 -76.3403 31° Northeast 441 507 33,000  Level Washington Center
07:11PM 37.0514 -76.2503 31° Northeast 446 513 33,000  Level Washington Center
07:12PM 37.1603 -76.1653 32° Northeast 451 519 33,000  Level Washington Center
07:13PM 37.2711 -76.0853 30° Northeast 451 519 33,000  Level Washington Center
07:14PM 37.3758 -76.0022 32° Northeast 451 519 33,000  Level Washington Center
07:15PM 37.4844 -75.9164 32° Northeast 451 519 33,000  Level Washington Center
07:16PM 37.5931 -75.8328 31° Northeast 451 519 33,000  Level Washington Center
07:17PM 37.7017 -75.7492 31° Northeast 451 519 33,000  Level Washington Center
07:18PM 37.8103 -75.6681 31° Northeast 451 519 33,000  Level Washington Center
07:19PM 37.9144 -75.5839 33° Northeast 451 519 33,000  Level Washington Center
07:20PM 38.0208 -75.4969 33° Northeast 451 519 33,000  Level Washington Center
07:21PM 38.1314 -75.4228 28° Northeast 445 512 33,000  Level Washington Center
07:22PM 38.2417 -75.3539 26° Northeast 440 506 33,000  Level Washington Center
07:23PM 38.3500 -75.2792 28° Northeast 440 506 33,000  Level Washington Center
07:24PM 38.4644 -75.2072 26° Northeast 440 506 33,000  Level Washington Center
07:25PM 38.5767 -75.1350 27° Northeast 440 506 33,000  Level Washington Center
07:26PM 38.6889 -75.0650 26° Northeast 447 514 33,000  Level Washington Center
07:27PM 38.7992 -74.9978 25° Northeast 447 514 33,000 -420 Level Washington Center
07:28PM 38.9072 -74.9247 28° Northeast 437 503 32,200 -1,200 Descending Washington Center
07:29PM 39.0111 -74.8597 26° Northeast 427 491 30,700 -1,680 Descending Washington Center
07:30PM 39.1106 -74.7864 30° Northeast 416 479 29,000 -1,860 Descending Washington Center
07:31PM 39.1975 -74.6917 40° Northeast 406 467 27,000 -1,860 Descending Washington Center
07:32PM 39.2822 -74.5994 40° Northeast 401 461 25,300 -1,740 Descending Washington Center
07:34PM 39.4528 -74.4167 40° Northeast 366 421 21,600 -1,920 Descending New York Center
07:35PM 39.5306 -74.3292 41° Northeast 361 415 19,400 -1,320 Descending New York Center
07:36PM 39.5994 -74.2544 40° Northeast 366 421 19,000 -960 Descending New York Center
07:37PM 39.6728 -74.1744 40° Northeast 360 414 17,500 -1,800 Descending New York Center
07:38PM 39.7525 -74.0839 41° Northeast 345 397 15,400 -1,920 Descending New York Center
07:39PM 39.8253 -74.0061 39° Northeast 340 391 13,700 -1,680 Descending New York Center
07:40PM 39.9000 -73.9475 31° Northeast 333 383 12,200 -1,380 Descending New York Center
07:41PM 39.9681 -73.8964 30° Northeast 316 364 11,000 -600 Descending New York Center
07:42PM 40.0350 -73.8100 45° Northeast 303 349 11,000 -720 Level New York Center
07:43PM 40.0972 -73.7339 43° Northeast 298 343 9,600 -1,500 Descending New York Center
07:44PM 40.1500 -73.7833 324° Northwest 237 273 8,100 -1,620 Descending New York TRACON
07:45PM 40.2000 -73.8333 323° Northwest 233 268 6,400 -1,740 Descending New York TRACON
07:46PM 40.2500 -73.9000 315° West 243 280 4,600 -1,620 Descending New York TRACON
07:47PM 40.3000 -73.9667 315° West 244 281 3,000 -1,500 Descending New York TRACON